Time;durP1;ratioP1;P1;durP2;ratioP2;P2;SDS_P1;SDS_P2;PMS_P1;PMS_P2;Temp;Humidity;BMP_temperature;BMP_pressure;BME280_temperature;BME280_humidity;BME280_pressure;Samples;Min_cycle;Max_cycle;Signal;HPM_P1;HPM_P2
2023/05/05 00:01:05;;;;;;;6.60;4.63;;;;;;;;;;4995839;28;20061;-79
2023/05/05 00:03:34;;;;;;;6.82;4.00;;;;;;;;;;4995843;28;20496;-79
2023/05/05 00:05:59;;;;;;;6.88;4.78;;;;;;;;;;4993838;28;20440;-80
2023/05/05 00:08:25;;;;;;;7.47;4.93;;;;;;;;;;4995289;28;20496;-80
2023/05/05 00:10:51;;;;;;;8.13;4.20;;;;;;;;;;4995490;28;20042;-79
2023/05/05 00:13:20;;;;;;;10.68;4.75;;;;;;;;;;4995624;28;20042;-79
2023/05/05 00:15:48;;;;;;;6.88;4.38;;;;;;;;;;5013230;28;20034;-79
2023/05/05 00:18:15;;;;;;;5.80;3.92;;;;;;;;;;5010541;28;20117;-80
2023/05/05 00:20:41;;;;;;;8.20;3.83;;;;;;;;;;5006902;28;20038;-79
2023/05/05 00:23:07;;;;;;;5.93;3.55;;;;;;;;;;5017831;28;20034;-80
2023/05/05 00:25:32;;;;;;;7.15;3.85;;;;;;;;;;5001629;28;20125;-80
2023/05/05 00:27:58;;;;;;;6.88;4.40;;;;;;;;;;5014021;28;20045;-79
2023/05/05 00:30:24;;;;;;;6.47;4.18;;;;;;;;;;5010816;28;20042;-80
2023/05/05 00:32:50;;;;;;;6.13;4.70;;;;;;;;;;4994981;28;20026;-80
2023/05/05 00:35:16;;;;;;;6.50;4.38;;;;;;;;;;5012344;28;20065;-79
2023/05/05 00:37:43;;;;;;;8.07;4.47;;;;;;;;;;5003973;28;20030;-79
2023/05/05 00:40:11;;;;;;;7.53;4.45;;;;;;;;;;5002162;28;20041;-80
2023/05/05 00:42:39;;;;;;;9.90;4.32;;;;;;;;;;5016249;28;20050;-79
2023/05/05 00:45:05;;;;;;;5.63;3.97;;;;;;;;;;4997192;28;20034;-79
2023/05/05 00:47:30;;;;;;;7.30;4.60;;;;;;;;;;4993718;28;20034;-79
2023/05/05 00:49:56;;;;;;;5.22;4.20;;;;;;;;;;4994259;28;20045;-79
2023/05/05 00:52:22;;;;;;;8.93;4.55;;;;;;;;;;5009361;28;20034;-79
2023/05/05 00:54:48;;;;;;;6.65;4.00;;;;;;;;;;4994616;28;20114;-79
2023/05/05 00:57:13;;;;;;;5.53;3.95;;;;;;;;;;4994699;28;20022;-79
2023/05/05 00:59:39;;;;;;;7.32;4.20;;;;;;;;;;4993492;28;20045;-80
2023/05/05 01:02:05;;;;;;;7.60;4.10;;;;;;;;;;4994727;28;20117;-80
2023/05/05 01:04:30;;;;;;;5.53;4.20;;;;;;;;;;5023071;28;20141;-79
2023/05/05 01:07:10;;;;;;;5.95;3.95;;;;;;;;;;5009727;28;20088;-79
2023/05/05 01:09:56;;;;;;;5.82;4.20;;;;;;;;;;5006425;28;20046;-79
2023/05/05 01:12:28;;;;;;;5.57;4.50;;;;;;;;;;5018123;28;20138;-79
2023/05/05 01:15:10;;;;;;;5.47;4.15;;;;;;;;;;4982758;28;20035;-79
2023/05/05 01:17:42;;;;;;;5.83;4.33;;;;;;;;;;4995192;28;20033;-79
2023/05/05 01:20:39;;;;;;;6.93;4.60;;;;;;;;;;4990249;28;20758;-79
2023/05/05 01:23:06;;;;;;;7.22;4.80;;;;;;;;;;4993353;28;20122;-79
2023/05/05 01:26:14;;;;;;;5.18;4.00;;;;;;;;;;5009476;28;20668;-80
2023/05/05 01:29:11;;;;;;;7.05;4.70;;;;;;;;;;4992121;28;20031;-79
2023/05/05 01:31:50;;;;;;;6.40;4.35;;;;;;;;;;5005123;28;20046;-80
2023/05/05 01:34:42;;;;;;;6.70;4.32;;;;;;;;;;5007116;28;20128;-79
2023/05/05 01:37:17;;;;;;;6.07;4.20;;;;;;;;;;5006932;28;20451;-79
2023/05/05 01:39:45;;;;;;;7.03;4.30;;;;;;;;;;5007825;28;20033;-79
2023/05/05 01:42:13;;;;;;;5.38;4.00;;;;;;;;;;5005664;28;20057;-79
2023/05/05 01:44:42;;;;;;;5.63;3.85;;;;;;;;;;5004403;28;20034;-79
2023/05/05 01:47:12;;;;;;;7.03;4.57;;;;;;;;;;5015825;28;20034;-79
2023/05/05 01:49:38;;;;;;;8.57;4.03;;;;;;;;;;4998378;28;20038;-79
2023/05/05 01:52:04;;;;;;;5.93;4.55;;;;;;;;;;4977591;28;20548;-79
2023/05/05 01:54:33;;;;;;;6.68;4.40;;;;;;;;;;4992647;28;20030;-80
2023/05/05 01:57:02;;;;;;;8.10;4.70;;;;;;;;;;4992726;28;20098;-79
2023/05/05 01:59:28;;;;;;;5.93;4.63;;;;;;;;;;4992753;28;20042;-80
2023/05/05 02:01:56;;;;;;;6.53;4.43;;;;;;;;;;4992721;28;20121;-79
2023/05/05 02:04:23;;;;;;;8.50;4.50;;;;;;;;;;4995310;28;20042;-79
2023/05/05 02:06:51;;;;;;;10.02;4.60;;;;;;;;;;4995378;28;20070;-79
2023/05/05 02:09:18;;;;;;;5.93;4.47;;;;;;;;;;4994292;28;20049;-79
2023/05/05 02:11:44;;;;;;;7.53;4.70;;;;;;;;;;4994238;28;20146;-79
2023/05/05 02:14:11;;;;;;;8.50;4.63;;;;;;;;;;5008959;28;20707;-79
2023/05/05 02:16:40;;;;;;;7.45;4.45;;;;;;;;;;4994815;28;20065;-80
2023/05/05 02:19:06;;;;;;;7.57;4.47;;;;;;;;;;5012700;28;20034;-79
2023/05/05 02:21:33;;;;;;;13.07;4.32;;;;;;;;;;4995520;28;20034;-79
2023/05/05 02:23:59;;;;;;;7.30;3.90;;;;;;;;;;4994391;28;20034;-79
2023/05/05 02:26:25;;;;;;;4.53;3.55;;;;;;;;;;5012799;28;20508;-79
2023/05/05 02:29:01;;;;;;;6.97;3.53;;;;;;;;;;4997557;28;20123;-79
2023/05/05 02:31:28;;;;;;;5.55;3.67;;;;;;;;;;4995096;28;20038;-79
2023/05/05 02:33:56;;;;;;;5.20;3.80;;;;;;;;;;5012152;28;20034;-79
2023/05/05 02:36:26;;;;;;;4.80;3.65;;;;;;;;;;5012552;28;20165;-80
2023/05/05 02:39:03;;;;;;;5.93;3.90;;;;;;;;;;5011205;28;20617;-80
2023/05/05 02:41:37;;;;;;;6.00;3.85;;;;;;;;;;5015423;28;20503;-80
2023/05/05 02:44:09;;;;;;;4.80;3.55;;;;;;;;;;5012876;28;20080;-79
2023/05/05 02:46:37;;;;;;;6.05;3.63;;;;;;;;;;5026601;28;20034;-79
2023/05/05 02:49:03;;;;;;;5.93;3.58;;;;;;;;;;5004850;28;20619;-79
2023/05/05 02:51:28;;;;;;;5.03;3.45;;;;;;;;;;4987398;28;20050;-78
2023/05/05 02:53:57;;;;;;;5.60;3.10;;;;;;;;;;5001143;28;20042;-79
2023/05/05 02:56:46;;;;;;;6.93;3.42;;;;;;;;;;4997911;28;20104;-80
2023/05/05 02:59:15;;;;;;;5.55;3.17;;;;;;;;;;5011488;28;20444;-79
2023/05/05 03:01:45;;;;;;;4.15;2.95;;;;;;;;;;4995877;28;20129;-79
2023/05/05 03:04:21;;;;;;;4.97;2.50;;;;;;;;;;5011392;28;20077;-80
2023/05/05 03:06:55;;;;;;;7.32;3.10;;;;;;;;;;5019608;28;20080;-79
2023/05/05 03:09:30;;;;;;;5.65;2.80;;;;;;;;;;5015594;28;20031;-79
2023/05/05 03:12:04;;;;;;;6.63;3.00;;;;;;;;;;5013658;28;20420;-79
2023/05/05 03:14:42;;;;;;;4.55;2.80;;;;;;;;;;5011813;28;20148;-79
2023/05/05 03:17:11;;;;;;;3.80;2.65;;;;;;;;;;4995408;28;20061;-79
2023/05/05 03:19:43;;;;;;;8.63;2.63;;;;;;;;;;5011292;28;20121;-79
2023/05/05 03:22:09;;;;;;;4.72;2.60;;;;;;;;;;4995448;28;20140;-80
2023/05/05 03:24:36;;;;;;;4.03;2.67;;;;;;;;;;5016356;28;20591;-79
2023/05/05 03:27:06;;;;;;;3.70;2.60;;;;;;;;;;5016044;28;20038;-79
2023/05/05 03:29:35;;;;;;;3.95;2.60;;;;;;;;;;4996543;28;20197;-79
2023/05/05 03:32:03;;;;;;;4.82;2.53;;;;;;;;;;4996409;28;20101;-79
2023/05/05 03:34:28;;;;;;;7.57;2.88;;;;;;;;;;5010320;28;20053;-79
2023/05/05 03:36:55;;;;;;;4.53;2.60;;;;;;;;;;4989971;28;20488;-79
2023/05/05 03:39:20;;;;;;;4.82;2.60;;;;;;;;;;5004143;28;20042;-80
2023/05/05 03:41:48;;;;;;;4.80;2.47;;;;;;;;;;5002263;28;20041;-79
2023/05/05 03:44:14;;;;;;;4.75;2.55;;;;;;;;;;5014524;28;20091;-79
2023/05/05 03:46:40;;;;;;;6.43;2.72;;;;;;;;;;5011881;28;20145;-80
2023/05/05 03:49:09;;;;;;;6.43;2.85;;;;;;;;;;5010312;28;20125;-80
2023/05/05 03:51:36;;;;;;;3.53;2.50;;;;;;;;;;4995743;28;20042;-80
2023/05/05 03:54:02;;;;;;;6.10;2.70;;;;;;;;;;5010340;28;20041;-79
2023/05/05 03:56:27;;;;;;;3.28;2.53;;;;;;;;;;4994664;28;20050;-79
2023/05/05 03:58:53;;;;;;;4.05;2.63;;;;;;;;;;4994424;28;20054;-80
2023/05/05 04:01:19;;;;;;;4.25;2.50;;;;;;;;;;5007985;28;20117;-79
2023/05/05 04:03:44;;;;;;;3.90;2.60;;;;;;;;;;5016796;28;20032;-80
2023/05/05 04:06:10;;;;;;;3.83;2.58;;;;;;;;;;5011316;28;20694;-79
2023/05/05 04:08:36;;;;;;;7.35;2.50;;;;;;;;;;5007588;28;20046;-80
2023/05/05 04:11:01;;;;;;;3.83;2.60;;;;;;;;;;5020296;28;20045;-79
2023/05/05 04:13:28;;;;;;;5.55;2.35;;;;;;;;;;5016915;28;20534;-79
2023/05/05 04:15:54;;;;;;;4.22;2.80;;;;;;;;;;5014278;28;20034;-79
2023/05/05 04:18:20;;;;;;;4.18;2.58;;;;;;;;;;4992403;28;20113;-80
2023/05/05 04:20:46;;;;;;;4.43;2.50;;;;;;;;;;5006702;28;20037;-79
2023/05/05 04:23:12;;;;;;;4.63;2.72;;;;;;;;;;4992665;28;20138;-80
2023/05/05 04:25:39;;;;;;;3.55;2.42;;;;;;;;;;5007099;28;20029;-79
2023/05/05 04:28:05;;;;;;;5.50;2.30;;;;;;;;;;5002776;28;20128;-79
2023/05/05 04:30:31;;;;;;;4.38;2.20;;;;;;;;;;5013435;28;20037;-79
2023/05/05 04:32:56;;;;;;;3.33;2.45;;;;;;;;;;5013685;28;20369;-80
2023/05/05 04:35:23;;;;;;;3.17;2.35;;;;;;;;;;5010160;28;20511;-80
2023/05/05 04:37:52;;;;;;;3.00;2.38;;;;;;;;;;5009121;28;20045;-79
2023/05/05 04:40:18;;;;;;;5.35;2.60;;;;;;;;;;5022976;28;20111;-79
2023/05/05 04:42:43;;;;;;;3.63;2.50;;;;;;;;;;5021911;28;20081;-80
2023/05/05 04:45:09;;;;;;;4.00;2.53;;;;;;;;;;5002326;28;20062;-80
2023/05/05 04:47:36;;;;;;;3.92;2.30;;;;;;;;;;5012554;28;20045;-80
2023/05/05 04:50:02;;;;;;;4.18;2.28;;;;;;;;;;4996243;28;20036;-79
2023/05/05 04:52:27;;;;;;;3.53;2.30;;;;;;;;;;5009651;28;20116;-79
2023/05/05 04:54:53;;;;;;;3.47;2.20;;;;;;;;;;5010774;28;20408;-79
2023/05/05 04:57:19;;;;;;;3.83;2.45;;;;;;;;;;5007174;28;20030;-80
2023/05/05 04:59:44;;;;;;;3.80;2.30;;;;;;;;;;5020522;28;20029;-80
2023/05/05 05:02:11;;;;;;;3.30;2.10;;;;;;;;;;4999014;28;20125;-79
2023/05/05 05:04:36;;;;;;;2.75;2.10;;;;;;;;;;4997788;28;20116;-79
2023/05/05 05:07:02;;;;;;;2.72;2.10;;;;;;;;;;5011885;28;20400;-80
2023/05/05 05:09:27;;;;;;;4.15;2.33;;;;;;;;;;4992443;28;20038;-79
2023/05/05 05:11:53;;;;;;;3.85;2.35;;;;;;;;;;5008758;28;20044;-80
2023/05/05 05:14:19;;;;;;;5.10;2.30;;;;;;;;;;4992030;28;20034;-79
2023/05/05 05:16:49;;;;;;;3.00;2.10;;;;;;;;;;4991878;28;20037;-80
2023/05/05 05:19:15;;;;;;;4.03;2.38;;;;;;;;;;5001128;28;20100;-80
2023/05/05 05:21:41;;;;;;;4.13;2.28;;;;;;;;;;5008834;28;20042;-80
2023/05/05 05:24:06;;;;;;;3.88;2.33;;;;;;;;;;5006210;28;20034;-80
2023/05/05 05:26:32;;;;;;;3.55;2.30;;;;;;;;;;5021838;28;20795;-80
2023/05/05 05:28:58;;;;;;;4.57;2.28;;;;;;;;;;5008025;28;20030;-80
2023/05/05 05:31:23;;;;;;;4.28;2.50;;;;;;;;;;5006569;28;20044;-79
2023/05/05 05:33:49;;;;;;;3.20;2.22;;;;;;;;;;4999554;28;20037;-80
2023/05/05 05:36:15;;;;;;;6.20;2.30;;;;;;;;;;5016757;28;20037;-80
2023/05/05 05:38:42;;;;;;;6.03;2.28;;;;;;;;;;5012985;28;20038;-79
2023/05/05 05:41:08;;;;;;;6.82;2.20;;;;;;;;;;5009491;28;20096;-79
2023/05/05 05:43:35;;;;;;;4.53;2.28;;;;;;;;;;5008691;28;20049;-79
2023/05/05 05:46:02;;;;;;;2.75;2.10;;;;;;;;;;4992412;28;20049;-79
2023/05/05 05:48:31;;;;;;;4.45;2.08;;;;;;;;;;5007692;28;20030;-80
2023/05/05 05:50:57;;;;;;;3.60;2.30;;;;;;;;;;5009126;28;20030;-80
2023/05/05 05:53:23;;;;;;;2.72;2.03;;;;;;;;;;5011623;28;20042;-81
2023/05/05 05:55:50;;;;;;;4.13;2.00;;;;;;;;;;5008057;28;20061;-82
2023/05/05 05:58:17;;;;;;;3.75;2.20;;;;;;;;;;5008920;28;20093;-82
2023/05/05 06:00:43;;;;;;;3.25;2.30;;;;;;;;;;5012035;28;20101;-82
2023/05/05 06:03:10;;;;;;;2.53;1.92;;;;;;;;;;4995658;28;20073;-82
2023/05/05 06:05:37;;;;;;;5.15;2.10;;;;;;;;;;5003122;28;20038;-82
2023/05/05 06:08:03;;;;;;;3.85;1.95;;;;;;;;;;5011557;28;20096;-82
2023/05/05 06:10:30;;;;;;;6.13;2.30;;;;;;;;;;4995975;28;20031;-82
2023/05/05 06:13:06;;;;;;;7.32;2.10;;;;;;;;;;5008882;28;20100;-82
2023/05/05 06:15:35;;;;;;;3.53;2.08;;;;;;;;;;5023167;28;20045;-82
2023/05/05 06:18:02;;;;;;;4.05;1.90;;;;;;;;;;5011618;28;20072;-82
2023/05/05 06:20:27;;;;;;;3.28;1.90;;;;;;;;;;5009163;28;20062;-82
2023/05/05 06:22:54;;;;;;;5.78;2.13;;;;;;;;;;5020275;28;20030;-82
2023/05/05 06:25:20;;;;;;;4.18;2.10;;;;;;;;;;5013889;28;20051;-82
2023/05/05 06:27:47;;;;;;;2.90;2.20;;;;;;;;;;4980605;28;20564;-82
2023/05/05 06:30:13;;;;;;;4.13;1.95;;;;;;;;;;4996218;28;20045;-82
2023/05/05 06:32:39;;;;;;;5.78;3.58;;;;;;;;;;5012423;28;20034;-83
2023/05/05 06:35:05;;;;;;;4.97;1.98;;;;;;;;;;5013066;28;20141;-83
2023/05/05 06:37:31;;;;;;;4.35;1.90;;;;;;;;;;5010615;28;20029;-83
2023/05/05 06:39:56;;;;;;;4.95;2.10;;;;;;;;;;5005745;28;20091;-82
2023/05/05 06:42:22;;;;;;;3.13;2.10;;;;;;;;;;5005388;28;20118;-82
2023/05/05 06:44:50;;;;;;;2.58;1.90;;;;;;;;;;4998163;28;20121;-82
2023/05/05 06:47:15;;;;;;;4.03;2.00;;;;;;;;;;4996176;28;20173;-82
2023/05/05 06:49:40;;;;;;;6.20;2.20;;;;;;;;;;5010839;28;20099;-82
2023/05/05 06:52:07;;;;;;;2.67;2.10;;;;;;;;;;4996121;28;20034;-82
2023/05/05 06:54:33;;;;;;;3.83;1.90;;;;;;;;;;5010981;28;20038;-82
2023/05/05 06:56:58;;;;;;;4.18;2.05;;;;;;;;;;5011582;28;20034;-83
2023/05/05 06:59:24;;;;;;;4.75;1.80;;;;;;;;;;5011339;28;20098;-82
2023/05/05 07:01:50;;;;;;;3.72;1.92;;;;;;;;;;5011348;28;20073;-82
2023/05/05 07:04:16;;;;;;;2.90;1.90;;;;;;;;;;5001091;28;20145;-82
2023/05/05 07:06:41;;;;;;;4.38;1.92;;;;;;;;;;5012816;28;20124;-81
2023/05/05 07:09:07;;;;;;;3.75;2.10;;;;;;;;;;5009455;28;20479;-82
2023/05/05 07:11:32;;;;;;;2.63;1.90;;;;;;;;;;5005008;28;20049;-83
2023/05/05 07:13:58;;;;;;;5.97;2.25;;;;;;;;;;4998558;28;20045;-83
2023/05/05 07:16:25;;;;;;;3.85;2.00;;;;;;;;;;4997116;28;20046;-81
2023/05/05 07:18:51;;;;;;;4.45;1.92;;;;;;;;;;4999168;28;20034;-81
2023/05/05 07:21:16;;;;;;;5.03;2.00;;;;;;;;;;5014155;28;20034;-81
2023/05/05 07:23:42;;;;;;;3.55;1.90;;;;;;;;;;4999162;28;20073;-81
2023/05/05 07:26:07;;;;;;;4.30;2.15;;;;;;;;;;5000105;28;20119;-85
2023/05/05 07:28:33;;;;;;;4.30;1.90;;;;;;;;;;4998628;28;20041;-82
2023/05/05 07:30:59;;;;;;;3.88;2.00;;;;;;;;;;4997351;28;20132;-83
2023/05/05 07:33:24;;;;;;;2.92;2.00;;;;;;;;;;4996845;28;20030;-82
2023/05/05 07:35:50;;;;;;;3.47;1.85;;;;;;;;;;4996683;28;20038;-82
2023/05/05 07:38:15;;;;;;;2.80;1.80;;;;;;;;;;5015491;28;20032;-82
2023/05/05 07:40:41;;;;;;;2.97;1.90;;;;;;;;;;5000363;28;20133;-82
2023/05/05 07:43:07;;;;;;;2.08;1.67;;;;;;;;;;5000745;28;20034;-82
2023/05/05 07:45:32;;;;;;;2.90;1.90;;;;;;;;;;5008972;28;20125;-82
2023/05/05 07:47:58;;;;;;;4.97;2.25;;;;;;;;;;5012109;28;20078;-83
2023/05/05 07:50:24;;;;;;;5.00;1.90;;;;;;;;;;5008628;28;20089;-82
2023/05/05 07:52:49;;;;;;;5.55;2.03;;;;;;;;;;5020094;28;20037;-83
2023/05/05 07:55:14;;;;;;;3.80;2.17;;;;;;;;;;5001745;28;20033;-83
2023/05/05 07:57:40;;;;;;;4.25;1.92;;;;;;;;;;5015116;28;20068;-86
2023/05/05 08:00:06;;;;;;;2.67;2.20;;;;;;;;;;4995961;28;20030;-83
2023/05/05 08:02:37;;;;;;;6.93;2.40;;;;;;;;;;5000553;28;20034;-84
2023/05/05 08:05:03;;;;;;;5.00;3.30;;;;;;;;;;4997474;28;20093;-82
2023/05/05 08:07:29;;;;;;;3.58;2.30;;;;;;;;;;5000416;28;20119;-84
2023/05/05 08:09:54;;;;;;;2.45;1.90;;;;;;;;;;5016728;28;20456;-84
2023/05/05 08:12:21;;;;;;;2.65;2.20;;;;;;;;;;5014769;28;20080;-83
2023/05/05 08:14:46;;;;;;;3.17;2.40;;;;;;;;;;4994759;28;20421;-81
2023/05/05 08:17:12;;;;;;;5.43;2.20;;;;;;;;;;4996117;28;20030;-82
2023/05/05 08:19:37;;;;;;;3.85;2.03;;;;;;;;;;5002965;28;20045;-82
2023/05/05 08:22:03;;;;;;;3.95;2.30;;;;;;;;;;5002124;28;20064;-82
2023/05/05 08:24:28;;;;;;;5.35;2.17;;;;;;;;;;5006741;28;20064;-84
2023/05/05 08:26:54;;;;;;;3.00;2.00;;;;;;;;;;5003576;28;20042;-83
2023/05/05 08:29:20;;;;;;;4.85;2.10;;;;;;;;;;5003900;28;20062;-84
2023/05/05 08:31:48;;;;;;;5.53;2.28;;;;;;;;;;4997019;28;20042;-83
2023/05/05 08:34:13;;;;;;;8.23;2.22;;;;;;;;;;4999061;28;20121;-82
2023/05/05 08:36:39;;;;;;;4.13;2.63;;;;;;;;;;4995814;28;20034;-83
2023/05/05 08:39:04;;;;;;;3.30;2.08;;;;;;;;;;4997681;28;20030;-84
2023/05/05 08:41:30;;;;;;;4.22;2.40;;;;;;;;;;5004208;28;20053;-84
2023/05/05 08:43:55;;;;;;;3.50;2.10;;;;;;;;;;5017372;28;20068;-83
2023/05/05 08:46:22;;;;;;;6.93;2.47;;;;;;;;;;5015610;28;20038;-83
2023/05/05 08:48:48;;;;;;;5.60;1.98;;;;;;;;;;5011143;28;20053;-84
2023/05/05 08:51:18;;;;;;;4.78;2.10;;;;;;;;;;5007395;28;20045;-84
2023/05/05 08:53:53;;;;;;;4.15;2.17;;;;;;;;;;4999416;28;20033;-84
2023/05/05 08:56:20;;;;;;;5.20;2.03;;;;;;;;;;4996621;28;20045;-82
2023/05/05 08:58:47;;;;;;;3.75;2.22;;;;;;;;;;4997143;28;20093;-82
2023/05/05 09:01:13;;;;;;;4.80;2.00;;;;;;;;;;4996555;28;20062;-83
2023/05/05 09:03:39;;;;;;;3.42;1.85;;;;;;;;;;4996467;28;20129;-82
2023/05/05 09:06:06;;;;;;;3.30;2.05;;;;;;;;;;4996840;28;20034;-82
2023/05/05 09:08:32;;;;;;;4.95;1.98;;;;;;;;;;4996731;28;20042;-82
2023/05/05 09:10:59;;;;;;;5.22;2.08;;;;;;;;;;5011982;28;20045;-82
2023/05/05 09:13:26;;;;;;;4.07;2.00;;;;;;;;;;4996465;28;20436;-82
2023/05/05 09:15:51;;;;;;;3.58;2.20;;;;;;;;;;5028188;28;20538;-83
2023/05/05 09:18:16;;;;;;;4.32;1.92;;;;;;;;;;5012337;28;20026;-82
2023/05/05 09:20:42;;;;;;;3.70;2.28;;;;;;;;;;5008694;28;20459;-84
2023/05/05 09:23:15;;;;;;;5.28;2.10;;;;;;;;;;5020285;28;20045;-82
2023/05/05 09:25:45;;;;;;;;;;;;;;;;;;4997194;28;20102;-82
2023/05/05 09:28:17;;;;;;;3.03;2.10;;;;;;;;;;5015620;28;19949;-82
2023/05/05 09:30:44;;;;;;;3.13;1.90;;;;;;;;;;5004823;28;20042;-82
2023/05/05 09:33:10;;;;;;;3.05;1.90;;;;;;;;;;5017543;28;20041;-82
2023/05/05 09:35:56;;;;;;;3.83;2.30;;;;;;;;;;5013624;28;20084;-82
2023/05/05 09:38:23;;;;;;;4.43;2.08;;;;;;;;;;5009552;28;20082;-82
2023/05/05 09:40:52;;;;;;;4.63;2.15;;;;;;;;;;5020721;28;20062;-83
2023/05/05 09:43:20;;;;;;;2.95;2.00;;;;;;;;;;5005483;28;20503;-82
2023/05/05 09:45:47;;;;;;;4.57;1.95;;;;;;;;;;5015160;28;20133;-82
2023/05/05 09:48:28;;;;;;;2.75;1.90;;;;;;;;;;5011333;28;20042;-82
2023/05/05 09:50:55;;;;;;;4.47;2.00;;;;;;;;;;5014117;28;20037;-83
2023/05/05 09:53:21;;;;;;;3.53;2.00;;;;;;;;;;5012107;28;20433;-83
2023/05/05 09:55:59;;;;;;;3.88;2.00;;;;;;;;;;5007712;28;20030;-83
2023/05/05 09:58:29;;;;;;;3.05;1.90;;;;;;;;;;4998731;28;20066;-82
2023/05/05 10:00:56;;;;;;;3.00;2.05;;;;;;;;;;4999966;28;20125;-82
2023/05/05 10:03:21;;;;;;;4.68;2.05;;;;;;;;;;5015703;28;20049;-83
2023/05/05 10:05:52;;;;;;;5.82;2.10;;;;;;;;;;5014829;28;20038;-82
2023/05/05 10:08:21;;;;;;;4.97;2.20;;;;;;;;;;4996687;28;20064;-83
2023/05/05 10:10:55;;;;;;;3.92;1.95;;;;;;;;;;5012490;28;20035;-82
2023/05/05 10:13:22;;;;;;;4.20;2.10;;;;;;;;;;4996814;28;20591;-82
2023/05/05 10:15:50;;;;;;;4.63;1.90;;;;;;;;;;4997087;28;20038;-83
2023/05/05 10:18:21;;;;;;;2.28;2.00;;;;;;;;;;4994571;28;20030;-83
2023/05/05 10:20:50;;;;;;;3.15;1.90;;;;;;;;;;5013428;28;20038;-83
2023/05/05 10:23:19;;;;;;;2.38;1.80;;;;;;;;;;5009280;28;20033;-82
2023/05/05 10:26:00;;;;;;;4.07;1.80;;;;;;;;;;5008068;28;20113;-82
2023/05/05 10:28:30;;;;;;;3.63;1.88;;;;;;;;;;5003034;28;20037;-82
2023/05/05 10:30:59;;;;;;;5.10;1.90;;;;;;;;;;5012729;28;20495;-81
2023/05/05 10:33:38;;;;;;;3.15;1.77;;;;;;;;;;5025989;28;20033;-81
2023/05/05 10:36:05;;;;;;;2.75;1.70;;;;;;;;;;5022304;28;20543;-83
2023/05/05 10:38:32;;;;;;;2.78;1.80;;;;;;;;;;4997116;28;20030;-81
2023/05/05 10:41:00;;;;;;;2.88;1.70;;;;;;;;;;4999639;28;20109;-80
2023/05/05 10:43:27;;;;;;;4.10;1.95;;;;;;;;;;4999214;28;20077;-81
2023/05/05 10:45:53;;;;;;;3.72;2.00;;;;;;;;;;5015411;28;20101;-86
2023/05/05 10:48:26;;;;;;;5.70;1.70;;;;;;;;;;5011443;28;20037;-84
2023/05/05 10:50:57;;;;;;;3.08;1.83;;;;;;;;;;4997098;28;20030;-82
2023/05/05 10:53:41;;;;;;;3.20;1.80;;;;;;;;;;5017367;28;20042;-85
2023/05/05 10:56:25;;;;;;;5.38;2.00;;;;;;;;;;4998801;28;20026;-85
2023/05/05 10:58:50;;;;;;;3.42;1.80;;;;;;;;;;4994802;28;20056;-85
2023/05/05 11:01:29;;;;;;;3.20;2.20;;;;;;;;;;5011273;28;20480;-82
2023/05/05 11:04:24;;;;;;;6.10;2.28;;;;;;;;;;4994580;28;20113;-84
2023/05/05 11:07:08;;;;;;;3.53;1.90;;;;;;;;;;4993761;28;20611;-82
2023/05/05 11:09:37;;;;;;;2.55;1.80;;;;;;;;;;5013142;28;20026;-82
2023/05/05 11:12:06;;;;;;;3.00;1.80;;;;;;;;;;4995063;28;20042;-83
2023/05/05 11:14:32;;;;;;;5.05;2.40;;;;;;;;;;5001202;28;20057;-82
2023/05/05 11:16:57;;;;;;;2.70;2.20;;;;;;;;;;5005158;28;20507;-85
2023/05/05 11:19:41;;;;;;;3.75;2.22;;;;;;;;;;5000807;28;20031;-86
2023/05/05 11:22:06;;;;;;;3.67;2.10;;;;;;;;;;4997257;28;20030;-85
2023/05/05 11:24:32;;;;;;;5.07;2.33;;;;;;;;;;5014167;28;20038;-85
2023/05/05 11:26:57;;;;;;;6.20;2.00;;;;;;;;;;5000738;28;20042;-82
2023/05/05 11:29:23;;;;;;;3.55;1.70;;;;;;;;;;5000998;28;20061;-84
2023/05/05 11:32:12;;;;;;;4.03;1.85;;;;;;;;;;5016010;28;20061;-81
2023/05/05 11:34:48;;;;;;;3.15;2.03;;;;;;;;;;5004982;28;20060;-82
2023/05/05 11:37:17;;;;;;;7.60;2.10;;;;;;;;;;5023206;28;20030;-83
2023/05/05 11:40:12;;;;;;;3.83;1.98;;;;;;;;;;5003422;28;20053;-83
2023/05/05 11:42:37;;;;;;;8.73;1.90;;;;;;;;;;5024865;28;20084;-83
2023/05/05 11:45:19;;;;;;;4.97;2.20;;;;;;;;;;5029943;28;20038;-85
2023/05/05 11:47:45;;;;;;;5.47;2.10;;;;;;;;;;5008781;28;20037;-84
2023/05/05 11:50:21;;;;;;;3.47;2.33;;;;;;;;;;5007084;28;20038;-83
2023/05/05 11:52:48;;;;;;;9.63;2.60;;;;;;;;;;5005535;28;20034;-83
2023/05/05 11:55:19;;;;;;;3.35;2.30;;;;;;;;;;5005041;28;20037;-84
2023/05/05 11:57:45;;;;;;;4.07;2.20;;;;;;;;;;5003709;28;20105;-83
2023/05/05 12:00:11;;;;;;;7.70;2.97;;;;;;;;;;5022278;28;20042;-84
2023/05/05 12:02:36;;;;;;;4.97;2.40;;;;;;;;;;5006031;28;20038;-84
2023/05/05 12:05:02;;;;;;;4.38;2.92;;;;;;;;;;5010779;28;20069;-82
2023/05/05 12:07:30;;;;;;;2.60;2.20;;;;;;;;;;5022340;28;20072;-83
2023/05/05 12:09:56;;;;;;;5.15;2.55;;;;;;;;;;5002400;28;20048;-83
2023/05/05 12:12:34;;;;;;;4.93;2.50;;;;;;;;;;5008345;28;20042;-84
2023/05/05 12:14:59;;;;;;;5.25;2.30;;;;;;;;;;5018633;28;20052;-83
2023/05/05 12:17:35;;;;;;;5.22;2.60;;;;;;;;;;5027860;28;20504;-82
2023/05/05 12:20:00;;;;;;;2.80;2.35;;;;;;;;;;5004216;28;20077;-82
2023/05/05 12:22:26;;;;;;;4.13;2.42;;;;;;;;;;5005025;28;20037;-84
2023/05/05 12:24:53;;;;;;;6.47;2.25;;;;;;;;;;5000664;28;20089;-84
2023/05/05 12:27:22;;;;;;;5.05;2.50;;;;;;;;;;5000532;28;20038;-85
2023/05/05 12:29:48;;;;;;;7.70;2.72;;;;;;;;;;4997793;28;20050;-85
2023/05/05 12:32:21;;;;;;;3.60;2.33;;;;;;;;;;4997618;28;20050;-84
2023/05/05 12:34:48;;;;;;;5.25;2.67;;;;;;;;;;4995125;28;20030;-84
2023/05/05 12:37:15;;;;;;;4.00;2.38;;;;;;;;;;4998286;28;20435;-84
2023/05/05 12:39:40;;;;;;;3.85;2.47;;;;;;;;;;5013872;28;20040;-83
2023/05/05 12:42:06;;;;;;;7.05;2.60;;;;;;;;;;5030549;28;20406;-82
2023/05/05 12:44:36;;;;;;;7.18;2.40;;;;;;;;;;5013609;28;20049;-84
2023/05/05 12:47:02;;;;;;;5.88;2.40;;;;;;;;;;4994302;28;20398;-82
2023/05/05 12:49:27;;;;;;;3.10;2.42;;;;;;;;;;5013632;28;20080;-82
2023/05/05 12:51:54;;;;;;;3.42;2.70;;;;;;;;;;4998200;28;20049;-84
2023/05/05 12:54:22;;;;;;;5.68;2.92;;;;;;;;;;4997475;28;20038;-83
2023/05/05 12:56:48;;;;;;;3.55;2.63;;;;;;;;;;5017649;28;20030;-83
2023/05/05 12:59:22;;;;;;;6.55;2.67;;;;;;;;;;5014286;28;20045;-82
2023/05/05 13:01:49;;;;;;;4.35;2.50;;;;;;;;;;5011274;28;20041;-84
2023/05/05 13:04:15;;;;;;;3.00;2.42;;;;;;;;;;4989718;28;20503;-84
2023/05/05 13:06:43;;;;;;;4.68;2.85;;;;;;;;;;5001534;28;20046;-85
2023/05/05 13:09:29;;;;;;;4.15;2.70;;;;;;;;;;5000978;28;20580;-84
2023/05/05 13:11:55;;;;;;;4.00;2.50;;;;;;;;;;4996410;28;20117;-85
2023/05/05 13:14:22;;;;;;;6.63;2.70;;;;;;;;;;5023753;28;20064;-84
2023/05/05 13:16:48;;;;;;;6.55;2.50;;;;;;;;;;5012488;28;20078;-84
2023/05/05 13:19:13;;;;;;;5.88;2.40;;;;;;;;;;5007988;28;20041;-84
2023/05/05 13:21:39;;;;;;;7.47;2.55;;;;;;;;;;5006561;28;20484;-85
2023/05/05 13:24:05;;;;;;;4.40;2.58;;;;;;;;;;5003389;28;20026;-85
2023/05/05 13:26:30;;;;;;;4.25;2.40;;;;;;;;;;5015150;28;20676;-82
2023/05/05 13:28:56;;;;;;;3.75;2.25;;;;;;;;;;5012633;28;20042;-84
2023/05/05 13:31:21;;;;;;;5.43;2.50;;;;;;;;;;4996682;28;20053;-84
2023/05/05 13:33:47;;;;;;;5.13;2.58;;;;;;;;;;4995499;28;20045;-84
2023/05/05 13:36:12;;;;;;;5.72;2.70;;;;;;;;;;5011415;28;20749;-83
2023/05/05 13:38:38;;;;;;;7.40;2.60;;;;;;;;;;4996449;28;20038;-84
2023/05/05 13:41:03;;;;;;;4.03;2.40;;;;;;;;;;5010861;28;20042;-85
2023/05/05 13:43:29;;;;;;;6.22;2.70;;;;;;;;;;4996220;28;20101;-84
2023/05/05 13:45:55;;;;;;;4.25;2.55;;;;;;;;;;4998550;28;20099;-84
2023/05/05 13:48:21;;;;;;;4.65;2.97;;;;;;;;;;5012358;28;20048;-82
2023/05/05 13:50:47;;;;;;;3.97;2.58;;;;;;;;;;5005070;28;20403;-85
2023/05/05 13:53:13;;;;;;;6.30;2.90;;;;;;;;;;5006255;28;20038;-84
2023/05/05 13:55:40;;;;;;;4.32;2.70;;;;;;;;;;5004285;28;20039;-85
2023/05/05 13:58:06;;;;;;;4.00;2.50;;;;;;;;;;5016749;28;20049;-83
2023/05/05 14:00:33;;;;;;;7.90;2.70;;;;;;;;;;5000021;28;20046;-84
2023/05/05 14:02:59;;;;;;;3.90;2.30;;;;;;;;;;4996072;28;20026;-83
2023/05/05 14:05:24;;;;;;;4.53;2.30;;;;;;;;;;4995424;28;20042;-84
2023/05/05 14:07:49;;;;;;;5.25;2.30;;;;;;;;;;4994096;28;20523;-83
2023/05/05 14:10:15;;;;;;;6.53;2.80;;;;;;;;;;5010982;28;20484;-84
2023/05/05 14:12:40;;;;;;;9.45;2.78;;;;;;;;;;4988541;28;20042;-85
2023/05/05 14:15:06;;;;;;;6.88;2.42;;;;;;;;;;4998761;28;20112;-84
2023/05/05 14:17:32;;;;;;;6.70;2.60;;;;;;;;;;4998798;28;20054;-84
2023/05/05 14:19:57;;;;;;;3.70;2.50;;;;;;;;;;5012255;28;20038;-85
2023/05/05 14:22:23;;;;;;;6.38;2.40;;;;;;;;;;5030953;28;20042;-84
2023/05/05 14:24:49;;;;;;;4.80;2.60;;;;;;;;;;5011413;28;20034;-86
2023/05/05 14:27:14;;;;;;;6.40;2.67;;;;;;;;;;5007789;28;20042;-85
2023/05/05 14:29:40;;;;;;;6.40;2.80;;;;;;;;;;5021638;28;20034;-83
2023/05/05 14:32:05;;;;;;;4.15;3.00;;;;;;;;;;5004600;28;20034;-82
2023/05/05 14:34:31;;;;;;;5.18;2.83;;;;;;;;;;5000123;28;20038;-85
2023/05/05 14:36:56;;;;;;;5.53;2.53;;;;;;;;;;5013947;28;20030;-84
2023/05/05 14:39:22;;;;;;;5.57;2.40;;;;;;;;;;4997555;28;20038;-84
2023/05/05 14:41:48;;;;;;;3.10;2.08;;;;;;;;;;5003913;28;20094;-84
2023/05/05 14:44:13;;;;;;;4.18;2.50;;;;;;;;;;5004521;28;20034;-85
2023/05/05 14:46:39;;;;;;;2.72;2.13;;;;;;;;;;4998118;28;20422;-84
2023/05/05 14:49:04;;;;;;;3.70;2.47;;;;;;;;;;5013612;28;20061;-84